Map

Track Data

SID SEASON NUMBER BASIN SUBBASIN NAME ISO_TIME NATURE LAT LON WMO_WIND WMO_PRES WMO_AGENCY TRACK_TYPE DIST2LAND LANDFALL IFLAG USA_AGENCY USA_ATCF_ID USA_LAT USA_LON USA_RECORD USA_STATUS USA_WIND USA_PRES USA_SSHS USA_R34_NE USA_R34_SE USA_R34_SW USA_R34_NW USA_R50_NE USA_R50_SE USA_R50_SW USA_R50_NW USA_R64_NE USA_R64_SE USA_R64_SW USA_R64_NW USA_POCI USA_ROCI USA_RMW USA_EYE TOKYO_LAT TOKYO_LON TOKYO_GRADE TOKYO_WIND TOKYO_PRES TOKYO_R50_DIR TOKYO_R50_LONG TOKYO_R50_SHORT TOKYO_R30_DIR TOKYO_R30_LONG TOKYO_R30_SHORT TOKYO_LAND CMA_LAT CMA_LON CMA_CAT CMA_WIND CMA_PRES HKO_LAT HKO_LON HKO_CAT HKO_WIND HKO_PRES NEWDELHI_LAT NEWDELHI_LON NEWDELHI_GRADE NEWDELHI_WIND NEWDELHI_PRES NEWDELHI_CI NEWDELHI_DP NEWDELHI_POCI REUNION_LAT REUNION_LON REUNION_TYPE REUNION_WIND REUNION_PRES REUNION_TNUM REUNION_CI REUNION_RMW REUNION_R34_NE REUNION_R34_SE REUNION_R34_SW REUNION_R34_NW REUNION_R50_NE REUNION_R50_SE REUNION_R50_SW REUNION_R50_NW REUNION_R64_NE REUNION_R64_SE REUNION_R64_SW REUNION_R64_NW BOM_LAT BOM_LON BOM_TYPE BOM_WIND BOM_PRES BOM_TNUM BOM_CI BOM_RMW BOM_R34_NE BOM_R34_SE BOM_R34_SW BOM_R34_NW BOM_R50_NE BOM_R50_SE BOM_R50_SW BOM_R50_NW BOM_R64_NE BOM_R64_SE BOM_R64_SW BOM_R64_NW BOM_ROCI BOM_POCI BOM_EYE BOM_POS_METHOD BOM_PRES_METHOD NADI_LAT NADI_LON NADI_CAT NADI_WIND NADI_PRES WELLINGTON_LAT WELLINGTON_LON WELLINGTON_WIND WELLINGTON_PRES DS824_LAT DS824_LON DS824_STAGE DS824_WIND DS824_PRES TD9636_LAT TD9636_LON TD9636_STAGE TD9636_WIND TD9636_PRES TD9635_LAT TD9635_LON TD9635_WIND TD9635_PRES TD9635_ROCI NEUMANN_LAT NEUMANN_LON NEUMANN_CLASS NEUMANN_WIND NEUMANN_PRES MLC_LAT MLC_LON MLC_CLASS MLC_WIND MLC_PRES USA_GUST BOM_GUST BOM_GUST_PER REUNION_GUST REUNION_GUST_PER USA_SEAHGT USA_SEARAD_NE USA_SEARAD_SE USA_SEARAD_SW USA_SEARAD_NW STORM_SPEED STORM_DIR
1914177N13134 1914 16 WP MM NOT_NAMED 1914-06-26 10:00:00 NR 13.5000 133.800 main 911 901 __________O___ -1 13.5000 133.800 4 4 304
1914177N13134 1914 16 WP MM NOT_NAMED 1914-06-26 12:00:00 NR 13.5769 133.684 main 902 883 __________P___ -1 13.5769 133.684 4 4 304
1914177N13134 1914 16 WP MM NOT_NAMED 1914-06-26 15:00:00 NR 13.6945 133.503 main 883 864 __________P___ -1 13.6945 133.503 4 4 303
1914177N13134 1914 16 WP MM NOT_NAMED 1914-06-26 18:00:00 NR 13.8185 133.306 main 864 845 __________P___ -1 13.8185 133.306 4 5 302
1914177N13134 1914 16 WP MM NOT_NAMED 1914-06-26 21:00:00 NR 13.9525 133.082 main 847 837 __________P___ -1 13.9525 133.082 4 5 302
1914177N13134 1914 16 WP MM NOT_NAMED 1914-06-26 22:00:00 NR 14.0000 133.000 main 837 818 __________O___ -1 14.0000 133.000 4 6 301
1914177N13134 1914 16 WP MM NOT_NAMED 1914-06-27 00:00:00 NR 14.1000 132.823 main 818 793 __________P___ -1 14.1000 132.823 4 6 300
1914177N13134 1914 16 WP MM NOT_NAMED 1914-06-27 03:00:00 NR 14.2626 132.532 main 793 766 __________P___ -1 14.2626 132.532 4 7 300
1914177N13134 1914 16 WP MM NOT_NAMED 1914-06-27 06:00:00 NR 14.4400 132.222 main 766 742 __________P___ -1 14.4400 132.222 4 7 301
1914177N13134 1914 16 WP MM NOT_NAMED 1914-06-27 09:00:00 NR 14.6325 131.905 main 742 736 __________P___ -1 14.6325 131.905 4 7 303
1914177N13134 1914 16 WP MM NOT_NAMED 1914-06-27 10:00:00 NR 14.7000 131.800 main 736 721 __________O___ -1 14.7000 131.800 4 7 305
1914177N13134 1914 16 WP MM NOT_NAMED 1914-06-27 12:00:00 NR 14.8358 131.603 main 721 701 __________P___ -1 14.8358 131.603 4 7 307
1914177N13134 1914 16 WP MM NOT_NAMED 1914-06-27 15:00:00 NR 15.0522 131.306 main 706 688 __________P___ -1 15.0522 131.306 4 7 308
1914177N13134 1914 16 WP MM NOT_NAMED 1914-06-27 18:00:00 NR 15.2810 131.008 main 688 672 __________P___ -1 15.2810 131.008 4 7 309
1914177N13134 1914 16 WP MM NOT_NAMED 1914-06-27 21:00:00 NR 15.5191 130.703 main 672 669 __________P___ -1 15.5191 130.703 4 8 309
1914177N13134 1914 16 WP MM NOT_NAMED 1914-06-27 22:00:00 NR 15.6000 130.600 main 669 658 __________O___ -1 15.6000 130.600 4 8 308
1914177N13134 1914 16 WP MM NOT_NAMED 1914-06-28 00:00:00 NR 15.7556 130.389 main 664 646 __________P___ -1 15.7556 130.389 4 8 308
1914177N13134 1914 16 WP MM NOT_NAMED 1914-06-28 03:00:00 NR 15.9953 130.066 main 653 624 __________P___ -1 15.9953 130.066 4 8 308
1914177N13134 1914 16 WP MM NOT_NAMED 1914-06-28 06:00:00 NR 16.2453 129.738 main 624 610 __________P___ -1 16.2453 129.738 4 8 309
1914177N13134 1914 16 WP MM NOT_NAMED 1914-06-28 09:00:00 NR 16.5087 129.409 main 610 606 __________P___ -1 16.5087 129.409 4 8 310
1914177N13134 1914 16 WP MM NOT_NAMED 1914-06-28 10:00:00 NR 16.6000 129.300 main 606 593 __________O___ -1 16.6000 129.300 4 8 312
1914177N13134 1914 16 WP MM NOT_NAMED 1914-06-28 12:00:00 NR 16.7885 129.081 main 599 585 __________P___ -1 16.7885 129.081 4 9 313
1914177N13134 1914 16 WP MM NOT_NAMED 1914-06-28 15:00:00 NR 17.0839 128.752 main 592 580 __________P___ -1 17.0839 128.752 4 9 314
1914177N13134 1914 16 WP MM NOT_NAMED 1914-06-28 18:00:00 NR 17.3890 128.425 main 580 580 __________P___ -1 17.3890 128.425 4 9 315
1914177N13134 1914 16 WP MM NOT_NAMED 1914-06-28 21:00:00 NR 17.6975 128.105 main 580 580 __________P___ -1 17.6975 128.105 4 9 315
1914177N13134 1914 16 WP MM NOT_NAMED 1914-06-28 22:00:00 NR 17.8000 128.000 main 580 571 __________O___ -1 17.8000 128.000 4 8 315
1914177N13134 1914 16 WP MM NOT_NAMED 1914-06-29 00:00:00 NR 17.9973 127.791 main 573 546 __________P___ -1 17.9973 127.791 4 8 315
1914177N13134 1914 16 WP MM NOT_NAMED 1914-06-29 03:00:00 NR 18.2932 127.485 main 548 517 __________P___ -1 18.2932 127.485 4 8 316
1914177N13134 1914 16 WP MM NOT_NAMED 1914-06-29 06:00:00 NR 18.5919 127.186 main 517 486 __________P___ -1 18.5919 127.186 4 8 317
1914177N13134 1914 16 WP MM NOT_NAMED 1914-06-29 09:00:00 NR 18.8966 126.895 main 487 477 __________P___ -1 18.8966 126.895 4 8 318
1914177N13134 1914 16 WP MM NOT_NAMED 1914-06-29 10:00:00 NR 19.0000 126.800 main 478 461 __________O___ -1 19.0000 126.800 4 8 319
1914177N13134 1914 16 WP MM NOT_NAMED 1914-06-29 12:00:00 NR 19.2109 126.603 main 461 438 __________P___ -1 19.2109 126.603 4 8 319
1914177N13134 1914 16 WP MM NOT_NAMED 1914-06-29 15:00:00 NR 19.5336 126.314 main 438 423 __________P___ -1 19.5336 126.314 4 8 321
1914177N13134 1914 16 WP MM NOT_NAMED 1914-06-29 18:00:00 NR 19.8612 126.037 main 423 413 __________P___ -1 19.8612 126.037 4 8 323
1914177N13134 1914 16 WP MM NOT_NAMED 1914-06-29 21:00:00 NR 20.1904 125.780 main 418 409 __________P___ -1 20.1904 125.780 4 8 324
1914177N13134 1914 16 WP MM NOT_NAMED 1914-06-29 22:00:00 NR 20.3000 125.700 main 415 409 __________O___ -1 20.3000 125.700 4 8 325
1914177N13134 1914 16 WP MM NOT_NAMED 1914-06-30 00:00:00 NR 20.5113 125.541 main 409 409 __________P___ -1 20.5113 125.541 4 8 326
1914177N13134 1914 16 WP MM NOT_NAMED 1914-06-30 03:00:00 NR 20.8283 125.323 main 413 413 __________P___ -1 20.8283 125.323 4 8 329
1914177N13134 1914 16 WP MM NOT_NAMED 1914-06-30 06:00:00 NR 21.1508 125.126 main 428 411 __________P___ -1 21.1508 125.126 4 7 332
1914177N13134 1914 16 WP MM NOT_NAMED 1914-06-30 09:00:00 NR 21.4849 124.953 main 411 396 __________P___ -1 21.4849 124.953 4 7 335
1914177N13134 1914 16 WP MM NOT_NAMED 1914-06-30 10:00:00 NR 21.6000 124.900 main 396 378 __________O___ -1 21.6000 124.900 4 8 339
1914177N13134 1914 16 WP MM NOT_NAMED 1914-06-30 12:00:00 NR 21.8384 124.815 main 378 353 __________P___ -1 21.8384 124.815 4 8 343
1914177N13134 1914 16 WP MM NOT_NAMED 1914-06-30 15:00:00 NR 22.2086 124.706 main 353 332 __________P___ -1 22.2086 124.706 4 8 345
1914177N13134 1914 16 WP MM NOT_NAMED 1914-06-30 18:00:00 NR 22.5887 124.597 main 332 313 __________P___ -1 22.5887 124.597 4 8 343
1914177N13134 1914 16 WP MM NOT_NAMED 1914-06-30 21:00:00 NR 22.9724 124.458 main 313 298 __________P___ -1 22.9724 124.458 4 8 340
1914177N13134 1914 16 WP MM NOT_NAMED 1914-06-30 22:00:00 NR 23.1000 124.400 main 298 272 __________O___ -1 23.1000 124.400 4 9 336
1914177N13134 1914 16 WP MM NOT_NAMED 1914-07-01 00:00:00 NR 23.3603 124.272 main 272 226 __________P___ -1 23.3603 124.272 4 9 333
1914177N13134 1914 16 WP MM NOT_NAMED 1914-07-01 03:00:00 NR 23.7509 124.042 main 226 197 __________P___ -1 23.7509 124.042 4 9 329
1914177N13134 1914 16 WP MM NOT_NAMED 1914-07-01 06:00:00 NR 24.1310 123.762 main 197 151 __________P___ -1 24.1310 123.762 4 9 323
1914177N13134 1914 16 WP MM NOT_NAMED 1914-07-01 09:00:00 NR 24.4882 123.426 main 151 138 __________P___ -1 24.4882 123.426 4 9 318
1914177N13134 1914 16 WP MM NOT_NAMED 1914-07-01 10:00:00 NR 24.6000 123.300 main 138 103 __________O___ -1 24.6000 123.300 4 10 312
1914177N13134 1914 16 WP MM NOT_NAMED 1914-07-01 12:00:00 NR 24.8112 123.028 main 103 61 __________P___ -1 24.8112 123.028 4 10 307
1914177N13134 1914 16 WP MM NOT_NAMED 1914-07-01 15:00:00 NR 25.1010 122.576 main 61 34 __________P___ -1 25.1010 122.576 4 10 303
1914177N13134 1914 16 WP MM NOT_NAMED 1914-07-01 18:00:00 NR 25.3668 122.086 main 45 34 __________P___ -1 25.3668 122.086 4 10 300
1914177N13134 1914 16 WP MM NOT_NAMED 1914-07-01 21:00:00 NR 25.6179 121.573 main 44 44 __________P___ -1 25.6179 121.573 4 11 298
1914177N13134 1914 16 WP MM NOT_NAMED 1914-07-01 22:00:00 NR 25.7000 121.400 main 55 __________O___ -1 25.7000 121.400 4 11 298

Digital Typhoon Data and Search

About IBTrACS Database

This database is a web-friendly format of International Best Track Archive for Climate Stewardship (IBTrACS), a global best track data archive curated by NOAA dating back to 1842.

Updated: 2021-11-26